sensor_id;sensor_type;location;lat;lon;timestamp;P1;durP1;ratioP1;P2;durP2;ratioP2
72404;SDS011;60395;52.020;113.548;2023-12-14T00:02:41;45.20;;;23.17;;
72404;SDS011;60395;52.020;113.548;2023-12-14T00:05:45;15.73;;;14.03;;
72404;SDS011;60395;52.020;113.548;2023-12-14T00:08:48;15.77;;;5.57;;
72404;SDS011;60395;52.020;113.548;2023-12-14T00:11:52;41.37;;;15.77;;
72404;SDS011;60395;52.020;113.548;2023-12-14T00:14:55;4.47;;;4.10;;
72404;SDS011;60395;52.020;113.548;2023-12-14T00:17:58;43.37;;;19.57;;
72404;SDS011;60395;52.020;113.548;2023-12-14T00:21:02;18.13;;;14.33;;
72404;SDS011;60395;52.020;113.548;2023-12-14T00:24:06;38.53;;;21.73;;
72404;SDS011;60395;52.020;113.548;2023-12-14T00:27:09;14.07;;;9.03;;
72404;SDS011;60395;52.020;113.548;2023-12-14T00:30:13;11.97;;;7.73;;
72404;SDS011;60395;52.020;113.548;2023-12-14T00:33:17;8.70;;;7.87;;
72404;SDS011;60395;52.020;113.548;2023-12-14T00:36:20;98.37;;;46.23;;
72404;SDS011;60395;52.020;113.548;2023-12-14T00:39:23;10.23;;;8.43;;
72404;SDS011;60395;52.020;113.548;2023-12-14T00:42:27;13.23;;;7.63;;
72404;SDS011;60395;52.020;113.548;2023-12-14T00:45:30;25.10;;;21.13;;
72404;SDS011;60395;52.020;113.548;2023-12-14T00:48:33;27.80;;;15.80;;
72404;SDS011;60395;52.020;113.548;2023-12-14T00:51:37;61.40;;;43.57;;
72404;SDS011;60395;52.020;113.548;2023-12-14T00:54:40;22.77;;;12.93;;
72404;SDS011;60395;52.020;113.548;2023-12-14T00:57:44;6.57;;;3.73;;
72404;SDS011;60395;52.020;113.548;2023-12-14T01:00:47;16.23;;;4.77;;
72404;SDS011;60395;52.020;113.548;2023-12-14T01:03:51;46.50;;;22.77;;
72404;SDS011;60395;52.020;113.548;2023-12-14T01:06:54;22.90;;;18.03;;
72404;SDS011;60395;52.020;113.548;2023-12-14T01:09:57;69.37;;;30.57;;
72404;SDS011;60395;52.020;113.548;2023-12-14T01:13:01;12.50;;;8.60;;
72404;SDS011;60395;52.020;113.548;2023-12-14T01:16:05;5.83;;;4.40;;
72404;SDS011;60395;52.020;113.548;2023-12-14T01:19:08;35.67;;;16.63;;
72404;SDS011;60395;52.020;113.548;2023-12-14T01:22:12;24.40;;;18.80;;
72404;SDS011;60395;52.020;113.548;2023-12-14T01:25:17;66.67;;;12.33;;
72404;SDS011;60395;52.020;113.548;2023-12-14T01:28:21;9.00;;;3.43;;
72404;SDS011;60395;52.020;113.548;2023-12-14T01:31:25;5.13;;;3.30;;
72404;SDS011;60395;52.020;113.548;2023-12-14T01:34:28;13.40;;;9.00;;
72404;SDS011;60395;52.020;113.548;2023-12-14T01:37:32;7.67;;;6.93;;
72404;SDS011;60395;52.020;113.548;2023-12-14T01:40:35;20.97;;;6.83;;
72404;SDS011;60395;52.020;113.548;2023-12-14T01:43:39;9.83;;;7.10;;
72404;SDS011;60395;52.020;113.548;2023-12-14T01:46:42;5.50;;;4.83;;
72404;SDS011;60395;52.020;113.548;2023-12-14T01:49:46;65.97;;;32.00;;
72404;SDS011;60395;52.020;113.548;2023-12-14T01:52:49;11.30;;;7.43;;
72404;SDS011;60395;52.020;113.548;2023-12-14T01:55:57;17.87;;;11.53;;
72404;SDS011;60395;52.020;113.548;2023-12-14T01:59:00;47.40;;;28.23;;
72404;SDS011;60395;52.020;113.548;2023-12-14T02:02:04;80.43;;;36.00;;
72404;SDS011;60395;52.020;113.548;2023-12-14T02:05:08;52.90;;;22.50;;
72404;SDS011;60395;52.020;113.548;2023-12-14T02:08:11;23.90;;;11.37;;
72404;SDS011;60395;52.020;113.548;2023-12-14T02:11:15;22.47;;;13.67;;
72404;SDS011;60395;52.020;113.548;2023-12-14T02:14:21;62.50;;;27.40;;
72404;SDS011;60395;52.020;113.548;2023-12-14T02:17:25;16.40;;;12.97;;
72404;SDS011;60395;52.020;113.548;2023-12-14T02:20:28;15.80;;;10.03;;
72404;SDS011;60395;52.020;113.548;2023-12-14T02:23:32;27.07;;;14.10;;
72404;SDS011;60395;52.020;113.548;2023-12-14T02:26:36;4.30;;;3.00;;
72404;SDS011;60395;52.020;113.548;2023-12-14T02:29:40;73.70;;;39.30;;
72404;SDS011;60395;52.020;113.548;2023-12-14T02:32:43;46.77;;;26.57;;
72404;SDS011;60395;52.020;113.548;2023-12-14T02:35:47;33.50;;;19.93;;
72404;SDS011;60395;52.020;113.548;2023-12-14T02:38:50;53.43;;;28.50;;
72404;SDS011;60395;52.020;113.548;2023-12-14T02:41:54;57.10;;;23.80;;
72404;SDS011;60395;52.020;113.548;2023-12-14T02:44:57;26.73;;;7.27;;
72404;SDS011;60395;52.020;113.548;2023-12-14T02:48:00;21.07;;;11.13;;
72404;SDS011;60395;52.020;113.548;2023-12-14T02:51:04;71.83;;;31.37;;
72404;SDS011;60395;52.020;113.548;2023-12-14T02:54:07;27.00;;;17.93;;
72404;SDS011;60395;52.020;113.548;2023-12-14T02:57:11;103.30;;;41.30;;
72404;SDS011;60395;52.020;113.548;2023-12-14T03:00:14;32.70;;;12.70;;
72404;SDS011;60395;52.020;113.548;2023-12-14T03:03:18;9.17;;;7.10;;
72404;SDS011;60395;52.020;113.548;2023-12-14T03:06:21;51.57;;;30.47;;
72404;SDS011;60395;52.020;113.548;2023-12-14T03:09:24;28.30;;;14.87;;
72404;SDS011;60395;52.020;113.548;2023-12-14T03:12:28;32.97;;;21.80;;
72404;SDS011;60395;52.020;113.548;2023-12-14T03:15:31;8.23;;;7.17;;
72404;SDS011;60395;52.020;113.548;2023-12-14T03:18:35;22.13;;;8.77;;
72404;SDS011;60395;52.020;113.548;2023-12-14T03:21:38;60.37;;;27.70;;
72404;SDS011;60395;52.020;113.548;2023-12-14T03:27:44;36.47;;;17.20;;
72404;SDS011;60395;52.020;113.548;2023-12-14T03:33:51;25.80;;;19.15;;
72404;SDS011;60395;52.020;113.548;2023-12-14T03:36:54;33.30;;;22.97;;
72404;SDS011;60395;52.020;113.548;2023-12-14T03:39:58;11.90;;;6.37;;
72404;SDS011;60395;52.020;113.548;2023-12-14T03:46:05;155.30;;;62.30;;
72404;SDS011;60395;52.020;113.548;2023-12-14T03:52:12;89.50;;;57.15;;
72404;SDS011;60395;52.020;113.548;2023-12-14T03:58:18;30.90;;;20.52;;
72404;SDS011;60395;52.020;113.548;2023-12-14T04:04:25;23.85;;;12.90;;
72404;SDS011;60395;52.020;113.548;2023-12-14T04:10:31;28.17;;;19.13;;
72404;SDS011;60395;52.020;113.548;2023-12-14T04:16:38;20.60;;;9.65;;
72404;SDS011;60395;52.020;113.548;2023-12-14T04:19:41;22.53;;;14.40;;
72404;SDS011;60395;52.020;113.548;2023-12-14T04:25:48;16.15;;;9.63;;
72404;SDS011;60395;52.020;113.548;2023-12-14T04:28:51;5.97;;;5.22;;
72404;SDS011;60395;52.020;113.548;2023-12-14T04:34:58;6.97;;;6.30;;
72404;SDS011;60395;52.020;113.548;2023-12-14T04:38:02;24.17;;;14.13;;
72404;SDS011;60395;52.020;113.548;2023-12-14T04:41:05;42.60;;;21.43;;
72404;SDS011;60395;52.020;113.548;2023-12-14T04:47:13;40.00;;;16.45;;
72404;SDS011;60395;52.020;113.548;2023-12-14T04:50:16;20.10;;;14.13;;
72404;SDS011;60395;52.020;113.548;2023-12-14T04:56:23;46.97;;;35.87;;
72404;SDS011;60395;52.020;113.548;2023-12-14T04:59:27;70.07;;;33.95;;
72404;SDS011;60395;52.020;113.548;2023-12-14T05:05:35;58.83;;;31.70;;
72404;SDS011;60395;52.020;113.548;2023-12-14T05:08:38;72.22;;;29.88;;
72404;SDS011;60395;52.020;113.548;2023-12-14T05:11:42;85.25;;;38.95;;
72404;SDS011;60395;52.020;113.548;2023-12-14T05:14:45;94.57;;;39.83;;
72404;SDS011;60395;52.020;113.548;2023-12-14T05:17:49;93.60;;;43.47;;
72404;SDS011;60395;52.020;113.548;2023-12-14T05:20:52;88.10;;;32.37;;
72404;SDS011;60395;52.020;113.548;2023-12-14T05:23:56;87.72;;;40.22;;
72404;SDS011;60395;52.020;113.548;2023-12-14T05:30:02;155.67;;;55.40;;
72404;SDS011;60395;52.020;113.548;2023-12-14T05:33:06;88.13;;;44.43;;
72404;SDS011;60395;52.020;113.548;2023-12-14T05:36:13;128.27;;;49.20;;
72404;SDS011;60395;52.020;113.548;2023-12-14T05:39:17;60.17;;;32.22;;
72404;SDS011;60395;52.020;113.548;2023-12-14T05:42:20;109.55;;;46.28;;
72404;SDS011;60395;52.020;113.548;2023-12-14T05:45:24;149.67;;;62.00;;
72404;SDS011;60395;52.020;113.548;2023-12-14T05:48:27;123.07;;;50.58;;
72404;SDS011;60395;52.020;113.548;2023-12-14T05:51:32;105.88;;;52.60;;
72404;SDS011;60395;52.020;113.548;2023-12-14T05:54:36;162.50;;;58.20;;
72404;SDS011;60395;52.020;113.548;2023-12-14T05:57:40;93.90;;;39.90;;
72404;SDS011;60395;52.020;113.548;2023-12-14T06:00:43;50.55;;;29.77;;
72404;SDS011;60395;52.020;113.548;2023-12-14T06:03:47;50.35;;;23.92;;
72404;SDS011;60395;52.020;113.548;2023-12-14T06:06:51;14.55;;;10.10;;
72404;SDS011;60395;52.020;113.548;2023-12-14T06:09:54;61.50;;;24.38;;
72404;SDS011;60395;52.020;113.548;2023-12-14T06:12:58;78.47;;;38.80;;
72404;SDS011;60395;52.020;113.548;2023-12-14T06:16:01;108.33;;;50.40;;
72404;SDS011;60395;52.020;113.548;2023-12-14T06:22:08;93.35;;;41.63;;
72404;SDS011;60395;52.020;113.548;2023-12-14T06:25:12;62.50;;;30.80;;
72404;SDS011;60395;52.020;113.548;2023-12-14T06:28:15;110.05;;;41.55;;
72404;SDS011;60395;52.020;113.548;2023-12-14T06:31:18;66.53;;;33.97;;
72404;SDS011;60395;52.020;113.548;2023-12-14T06:34:25;72.33;;;42.03;;
72404;SDS011;60395;52.020;113.548;2023-12-14T06:37:28;98.97;;;46.72;;
72404;SDS011;60395;52.020;113.548;2023-12-14T06:40:32;165.90;;;71.10;;
72404;SDS011;60395;52.020;113.548;2023-12-14T06:43:35;114.28;;;52.35;;
72404;SDS011;60395;52.020;113.548;2023-12-14T06:46:39;142.35;;;58.80;;
72404;SDS011;60395;52.020;113.548;2023-12-14T06:49:42;130.45;;;53.55;;
72404;SDS011;60395;52.020;113.548;2023-12-14T06:52:46;121.43;;;49.92;;
72404;SDS011;60395;52.020;113.548;2023-12-14T06:55:49;102.07;;;49.95;;
72404;SDS011;60395;52.020;113.548;2023-12-14T06:58:52;203.05;;;73.03;;
72404;SDS011;60395;52.020;113.548;2023-12-14T07:01:56;145.05;;;55.78;;
72404;SDS011;60395;52.020;113.548;2023-12-14T07:04:59;109.45;;;49.72;;
72404;SDS011;60395;52.020;113.548;2023-12-14T07:08:03;97.88;;;51.00;;
72404;SDS011;60395;52.020;113.548;2023-12-14T07:11:07;89.70;;;36.50;;
72404;SDS011;60395;52.020;113.548;2023-12-14T07:14:11;90.37;;;38.10;;
72404;SDS011;60395;52.020;113.548;2023-12-14T07:17:17;62.67;;;36.87;;
72404;SDS011;60395;52.020;113.548;2023-12-14T07:20:21;111.77;;;43.53;;
72404;SDS011;60395;52.020;113.548;2023-12-14T07:26:29;35.17;;;19.67;;
72404;SDS011;60395;52.020;113.548;2023-12-14T07:29:32;50.35;;;23.55;;
72404;SDS011;60395;52.020;113.548;2023-12-14T07:32:36;78.07;;;33.75;;
72404;SDS011;60395;52.020;113.548;2023-12-14T07:35:40;53.90;;;25.47;;
72404;SDS011;60395;52.020;113.548;2023-12-14T07:41:46;42.73;;;17.27;;
72404;SDS011;60395;52.020;113.548;2023-12-14T07:44:50;43.25;;;13.55;;
72404;SDS011;60395;52.020;113.548;2023-12-14T07:47:53;69.43;;;35.22;;
72404;SDS011;60395;52.020;113.548;2023-12-14T07:54:00;40.63;;;19.77;;
72404;SDS011;60395;52.020;113.548;2023-12-14T07:57:06;40.87;;;16.83;;
72404;SDS011;60395;52.020;113.548;2023-12-14T08:00:10;40.13;;;16.63;;
72404;SDS011;60395;52.020;113.548;2023-12-14T08:03:14;24.93;;;14.77;;
72404;SDS011;60395;52.020;113.548;2023-12-14T08:06:17;42.53;;;20.73;;
72404;SDS011;60395;52.020;113.548;2023-12-14T08:09:21;59.03;;;26.50;;
72404;SDS011;60395;52.020;113.548;2023-12-14T08:12:24;60.33;;;28.58;;
72404;SDS011;60395;52.020;113.548;2023-12-14T08:15:28;51.13;;;23.60;;
72404;SDS011;60395;52.020;113.548;2023-12-14T08:18:32;27.13;;;16.90;;
72404;SDS011;60395;52.020;113.548;2023-12-14T08:24:39;5.60;;;4.73;;
72404;SDS011;60395;52.020;113.548;2023-12-14T08:27:43;65.00;;;27.13;;
72404;SDS011;60395;52.020;113.548;2023-12-14T08:30:47;16.87;;;10.80;;
72404;SDS011;60395;52.020;113.548;2023-12-14T08:33:50;15.73;;;7.72;;
72404;SDS011;60395;52.020;113.548;2023-12-14T08:36:55;13.23;;;8.13;;
72404;SDS011;60395;52.020;113.548;2023-12-14T08:39:58;37.58;;;19.05;;
72404;SDS011;60395;52.020;113.548;2023-12-14T08:46:05;18.35;;;9.63;;
72404;SDS011;60395;52.020;113.548;2023-12-14T08:49:09;19.97;;;11.33;;
72404;SDS011;60395;52.020;113.548;2023-12-14T08:52:13;21.77;;;17.67;;
72404;SDS011;60395;52.020;113.548;2023-12-14T08:58:20;28.83;;;14.50;;
72404;SDS011;60395;52.020;113.548;2023-12-14T09:04:27;60.50;;;27.27;;
72404;SDS011;60395;52.020;113.548;2023-12-14T09:07:30;80.47;;;33.03;;
72404;SDS011;60395;52.020;113.548;2023-12-14T09:13:37;45.70;;;26.70;;
72404;SDS011;60395;52.020;113.548;2023-12-14T09:16:41;20.13;;;15.40;;
72404;SDS011;60395;52.020;113.548;2023-12-14T09:19:45;50.87;;;24.40;;
72404;SDS011;60395;52.020;113.548;2023-12-14T09:25:51;15.05;;;12.57;;
72404;SDS011;60395;52.020;113.548;2023-12-14T09:28:55;12.80;;;7.80;;
72404;SDS011;60395;52.020;113.548;2023-12-14T09:31:59;21.70;;;14.80;;
72404;SDS011;60395;52.020;113.548;2023-12-14T09:35:02;92.70;;;34.20;;
72404;SDS011;60395;52.020;113.548;2023-12-14T09:38:06;29.43;;;16.90;;
72404;SDS011;60395;52.020;113.548;2023-12-14T09:41:11;42.00;;;18.43;;
72404;SDS011;60395;52.020;113.548;2023-12-14T09:44:14;26.00;;;12.97;;
72404;SDS011;60395;52.020;113.548;2023-12-14T09:47:18;10.73;;;6.90;;
72404;SDS011;60395;52.020;113.548;2023-12-14T09:50:22;6.10;;;5.37;;
72404;SDS011;60395;52.020;113.548;2023-12-14T09:53:26;11.63;;;7.03;;
72404;SDS011;60395;52.020;113.548;2023-12-14T09:59:33;15.70;;;11.57;;
72404;SDS011;60395;52.020;113.548;2023-12-14T10:05:40;5.25;;;3.47;;
72404;SDS011;60395;52.020;113.548;2023-12-14T10:08:53;2.37;;;0.87;;
72404;SDS011;60395;52.020;113.548;2023-12-14T10:12:02;16.47;;;5.03;;
72404;SDS011;60395;52.020;113.548;2023-12-14T10:15:08;3.90;;;3.20;;
72404;SDS011;60395;52.020;113.548;2023-12-14T10:18:22;10.27;;;6.03;;
72404;SDS011;60395;52.020;113.548;2023-12-14T10:21:32;18.67;;;3.53;;
72404;SDS011;60395;52.020;113.548;2023-12-14T10:24:37;11.33;;;8.60;;
72404;SDS011;60395;52.020;113.548;2023-12-14T10:30:44;1.65;;;1.55;;
72404;SDS011;60395;52.020;113.548;2023-12-14T10:33:48;3.00;;;1.33;;
72404;SDS011;60395;52.020;113.548;2023-12-14T10:36:53;4.83;;;3.93;;
72404;SDS011;60395;52.020;113.548;2023-12-14T10:46:05;1.17;;;1.07;;
72404;SDS011;60395;52.020;113.548;2023-12-14T10:49:10;4.53;;;3.27;;
72404;SDS011;60395;52.020;113.548;2023-12-14T10:52:14;3.03;;;2.73;;
72404;SDS011;60395;52.020;113.548;2023-12-14T10:55:22;9.30;;;5.43;;
72404;SDS011;60395;52.020;113.548;2023-12-14T10:58:56;18.23;;;6.93;;
72404;SDS011;60395;52.020;113.548;2023-12-14T11:02:00;14.03;;;8.20;;
72404;SDS011;60395;52.020;113.548;2023-12-14T11:08:19;3.47;;;2.73;;
72404;SDS011;60395;52.020;113.548;2023-12-14T11:11:25;5.47;;;4.20;;
72404;SDS011;60395;52.020;113.548;2023-12-14T11:14:31;26.37;;;10.00;;
72404;SDS011;60395;52.020;113.548;2023-12-14T11:17:34;13.07;;;7.30;;
72404;SDS011;60395;52.020;113.548;2023-12-14T11:23:49;4.93;;;2.93;;
72404;SDS011;60395;52.020;113.548;2023-12-14T11:26:53;11.33;;;3.10;;
72404;SDS011;60395;52.020;113.548;2023-12-14T11:29:57;3.33;;;3.03;;
72404;SDS011;60395;52.020;113.548;2023-12-14T11:33:01;8.10;;;5.13;;
72404;SDS011;60395;52.020;113.548;2023-12-14T11:36:06;19.93;;;4.57;;
72404;SDS011;60395;52.020;113.548;2023-12-14T11:39:11;1.53;;;0.93;;
72404;SDS011;60395;52.020;113.548;2023-12-14T11:42:16;6.03;;;3.00;;
72404;SDS011;60395;52.020;113.548;2023-12-14T11:45:21;13.47;;;6.83;;
72404;SDS011;60395;52.020;113.548;2023-12-14T11:51:28;3.53;;;3.03;;
72404;SDS011;60395;52.020;113.548;2023-12-14T11:54:33;5.20;;;3.43;;
72404;SDS011;60395;52.020;113.548;2023-12-14T11:57:36;13.77;;;6.60;;
72404;SDS011;60395;52.020;113.548;2023-12-14T12:00:40;2.77;;;2.43;;
72404;SDS011;60395;52.020;113.548;2023-12-14T12:03:44;2.63;;;2.40;;
72404;SDS011;60395;52.020;113.548;2023-12-14T12:06:48;9.60;;;5.83;;
72404;SDS011;60395;52.020;113.548;2023-12-14T12:09:54;1.07;;;0.97;;
72404;SDS011;60395;52.020;113.548;2023-12-14T12:13:02;5.73;;;2.70;;
72404;SDS011;60395;52.020;113.548;2023-12-14T12:16:09;14.90;;;7.40;;
72404;SDS011;60395;52.020;113.548;2023-12-14T12:22:15;10.23;;;6.13;;
72404;SDS011;60395;52.020;113.548;2023-12-14T12:25:19;14.77;;;6.87;;
72404;SDS011;60395;52.020;113.548;2023-12-14T12:28:23;3.10;;;2.50;;
72404;SDS011;60395;52.020;113.548;2023-12-14T12:34:29;2.05;;;1.88;;
72404;SDS011;60395;52.020;113.548;2023-12-14T12:37:33;2.87;;;2.53;;
72404;SDS011;60395;52.020;113.548;2023-12-14T12:40:37;4.70;;;3.50;;
72404;SDS011;60395;52.020;113.548;2023-12-14T12:43:41;8.17;;;3.97;;
72404;SDS011;60395;52.020;113.548;2023-12-14T12:46:44;5.55;;;3.28;;
72404;SDS011;60395;52.020;113.548;2023-12-14T12:50:02;1.23;;;1.13;;
72404;SDS011;60395;52.020;113.548;2023-12-14T12:53:06;12.50;;;6.60;;
72404;SDS011;60395;52.020;113.548;2023-12-14T12:59:13;10.02;;;5.88;;
72404;SDS011;60395;52.020;113.548;2023-12-14T13:02:17;8.93;;;5.00;;
72404;SDS011;60395;52.020;113.548;2023-12-14T13:05:20;5.77;;;4.17;;
72404;SDS011;60395;52.020;113.548;2023-12-14T13:08:27;2.37;;;2.17;;
72404;SDS011;60395;52.020;113.548;2023-12-14T13:11:30;7.28;;;4.25;;
72404;SDS011;60395;52.020;113.548;2023-12-14T13:14:34;5.47;;;3.37;;
72404;SDS011;60395;52.020;113.548;2023-12-14T13:20:41;13.27;;;11.20;;
72404;SDS011;60395;52.020;113.548;2023-12-14T13:23:44;2.53;;;2.27;;
72404;SDS011;60395;52.020;113.548;2023-12-14T13:29:51;1.77;;;1.25;;
72404;SDS011;60395;52.020;113.548;2023-12-14T13:35:57;4.47;;;2.60;;
72404;SDS011;60395;52.020;113.548;2023-12-14T13:39:01;2.70;;;1.40;;
72404;SDS011;60395;52.020;113.548;2023-12-14T13:42:05;2.70;;;1.93;;
72404;SDS011;60395;52.020;113.548;2023-12-14T13:45:11;0.40;;;0.40;;
72404;SDS011;60395;52.020;113.548;2023-12-14T13:51:20;4.07;;;1.73;;
72404;SDS011;60395;52.020;113.548;2023-12-14T13:57:27;0.52;;;0.30;;
72404;SDS011;60395;52.020;113.548;2023-12-14T14:00:30;7.67;;;3.53;;
72404;SDS011;60395;52.020;113.548;2023-12-14T14:03:35;0.43;;;0.43;;
72404;SDS011;60395;52.020;113.548;2023-12-14T14:06:40;2.73;;;2.13;;
72404;SDS011;60395;52.020;113.548;2023-12-14T14:09:44;3.20;;;1.73;;
72404;SDS011;60395;52.020;113.548;2023-12-14T14:12:54;34.47;;;6.97;;
72404;SDS011;60395;52.020;113.548;2023-12-14T14:15:58;8.57;;;5.70;;
72404;SDS011;60395;52.020;113.548;2023-12-14T14:19:02;7.13;;;2.90;;
72404;SDS011;60395;52.020;113.548;2023-12-14T14:22:06;3.83;;;1.83;;
72404;SDS011;60395;52.020;113.548;2023-12-14T14:25:15;2.10;;;1.73;;
72404;SDS011;60395;52.020;113.548;2023-12-14T14:28:27;3.97;;;2.90;;
72404;SDS011;60395;52.020;113.548;2023-12-14T14:31:31;6.57;;;3.03;;
72404;SDS011;60395;52.020;113.548;2023-12-14T14:34:35;2.47;;;1.93;;
72404;SDS011;60395;52.020;113.548;2023-12-14T14:37:38;11.10;;;6.33;;
72404;SDS011;60395;52.020;113.548;2023-12-14T14:40:48;6.83;;;5.20;;
72404;SDS011;60395;52.020;113.548;2023-12-14T14:43:51;1.83;;;1.57;;
72404;SDS011;60395;52.020;113.548;2023-12-14T14:46:58;4.93;;;1.70;;
72404;SDS011;60395;52.020;113.548;2023-12-14T14:50:01;0.83;;;0.83;;
72404;SDS011;60395;52.020;113.548;2023-12-14T14:53:06;3.57;;;0.93;;
72404;SDS011;60395;52.020;113.548;2023-12-14T14:56:10;4.87;;;3.20;;
72404;SDS011;60395;52.020;113.548;2023-12-14T14:59:14;2.83;;;1.40;;
72404;SDS011;60395;52.020;113.548;2023-12-14T15:02:20;1.77;;;1.63;;
72404;SDS011;60395;52.020;113.548;2023-12-14T15:05:23;2.73;;;2.53;;
72404;SDS011;60395;52.020;113.548;2023-12-14T15:08:27;4.50;;;3.17;;
72404;SDS011;60395;52.020;113.548;2023-12-14T15:11:31;9.30;;;5.37;;
72404;SDS011;60395;52.020;113.548;2023-12-14T15:14:34;4.37;;;3.03;;
72404;SDS011;60395;52.020;113.548;2023-12-14T15:17:38;11.60;;;8.87;;
72404;SDS011;60395;52.020;113.548;2023-12-14T15:20:42;1.60;;;1.23;;
72404;SDS011;60395;52.020;113.548;2023-12-14T15:26:50;0.90;;;0.90;;
72404;SDS011;60395;52.020;113.548;2023-12-14T15:29:54;4.43;;;2.00;;
72404;SDS011;60395;52.020;113.548;2023-12-14T15:32:58;1.60;;;1.53;;
72404;SDS011;60395;52.020;113.548;2023-12-14T15:36:03;9.40;;;4.63;;
72404;SDS011;60395;52.020;113.548;2023-12-14T15:39:07;6.33;;;1.67;;
72404;SDS011;60395;52.020;113.548;2023-12-14T15:42:11;10.40;;;3.73;;
72404;SDS011;60395;52.020;113.548;2023-12-14T15:45:15;3.67;;;2.07;;
72404;SDS011;60395;52.020;113.548;2023-12-14T15:48:19;1.17;;;1.07;;
72404;SDS011;60395;52.020;113.548;2023-12-14T15:51:29;7.90;;;7.20;;
72404;SDS011;60395;52.020;113.548;2023-12-14T15:54:32;3.30;;;1.83;;
72404;SDS011;60395;52.020;113.548;2023-12-14T15:57:36;3.30;;;0.97;;
72404;SDS011;60395;52.020;113.548;2023-12-14T16:00:42;4.53;;;2.67;;
72404;SDS011;60395;52.020;113.548;2023-12-14T16:03:46;2.17;;;1.03;;
72404;SDS011;60395;52.020;113.548;2023-12-14T16:06:49;3.93;;;1.93;;
72404;SDS011;60395;52.020;113.548;2023-12-14T16:09:55;5.20;;;1.10;;
72404;SDS011;60395;52.020;113.548;2023-12-14T16:12:58;3.60;;;2.33;;
72404;SDS011;60395;52.020;113.548;2023-12-14T16:16:02;2.27;;;2.07;;
72404;SDS011;60395;52.020;113.548;2023-12-14T16:19:06;0.80;;;0.60;;
72404;SDS011;60395;52.020;113.548;2023-12-14T16:22:10;1.67;;;1.47;;
72404;SDS011;60395;52.020;113.548;2023-12-14T16:25:14;0.73;;;0.73;;
72404;SDS011;60395;52.020;113.548;2023-12-14T16:28:17;21.13;;;7.80;;
72404;SDS011;60395;52.020;113.548;2023-12-14T16:31:25;4.40;;;2.70;;
72404;SDS011;60395;52.020;113.548;2023-12-14T16:34:28;11.63;;;4.37;;
72404;SDS011;60395;52.020;113.548;2023-12-14T16:37:33;1.77;;;1.67;;
72404;SDS011;60395;52.020;113.548;2023-12-14T16:40:36;10.60;;;3.07;;
72404;SDS011;60395;52.020;113.548;2023-12-14T16:43:39;0.30;;;0.30;;
72404;SDS011;60395;52.020;113.548;2023-12-14T16:46:43;5.60;;;2.27;;
72404;SDS011;60395;52.020;113.548;2023-12-14T16:49:46;3.37;;;1.90;;
72404;SDS011;60395;52.020;113.548;2023-12-14T16:52:50;5.33;;;2.57;;
72404;SDS011;60395;52.020;113.548;2023-12-14T16:55:56;5.57;;;1.77;;
72404;SDS011;60395;52.020;113.548;2023-12-14T16:59:03;0.63;;;0.63;;
72404;SDS011;60395;52.020;113.548;2023-12-14T17:02:06;0.67;;;0.67;;
72404;SDS011;60395;52.020;113.548;2023-12-14T17:05:11;4.90;;;3.60;;
72404;SDS011;60395;52.020;113.548;2023-12-14T17:08:15;2.10;;;1.23;;
72404;SDS011;60395;52.020;113.548;2023-12-14T17:11:19;0.73;;;0.57;;
72404;SDS011;60395;52.020;113.548;2023-12-14T17:14:23;0.63;;;0.43;;
72404;SDS011;60395;52.020;113.548;2023-12-14T17:17:28;1.50;;;1.10;;
72404;SDS011;60395;52.020;113.548;2023-12-14T17:20:36;1.80;;;1.33;;
72404;SDS011;60395;52.020;113.548;2023-12-14T17:23:40;0.23;;;0.23;;
72404;SDS011;60395;52.020;113.548;2023-12-14T17:26:43;0.87;;;0.27;;
72404;SDS011;60395;52.020;113.548;2023-12-14T17:29:47;4.87;;;1.53;;
72404;SDS011;60395;52.020;113.548;2023-12-14T17:32:50;4.90;;;1.20;;
72404;SDS011;60395;52.020;113.548;2023-12-14T17:35:54;9.30;;;2.60;;
72404;SDS011;60395;52.020;113.548;2023-12-14T17:42:08;5.80;;;2.47;;
72404;SDS011;60395;52.020;113.548;2023-12-14T17:45:20;2.00;;;0.80;;
72404;SDS011;60395;52.020;113.548;2023-12-14T17:48:24;13.70;;;2.90;;
72404;SDS011;60395;52.020;113.548;2023-12-14T17:51:28;2.27;;;1.27;;
72404;SDS011;60395;52.020;113.548;2023-12-14T17:54:31;6.27;;;2.97;;
72404;SDS011;60395;52.020;113.548;2023-12-14T17:57:35;0.77;;;0.77;;
72404;SDS011;60395;52.020;113.548;2023-12-14T18:00:39;2.67;;;2.47;;
72404;SDS011;60395;52.020;113.548;2023-12-14T18:03:42;0.30;;;0.30;;
72404;SDS011;60395;52.020;113.548;2023-12-14T18:06:46;2.83;;;2.57;;
72404;SDS011;60395;52.020;113.548;2023-12-14T18:09:52;15.57;;;4.50;;
72404;SDS011;60395;52.020;113.548;2023-12-14T18:12:55;4.57;;;3.90;;
72404;SDS011;60395;52.020;113.548;2023-12-14T18:16:06;12.83;;;8.10;;
72404;SDS011;60395;52.020;113.548;2023-12-14T18:19:13;7.77;;;4.23;;
72404;SDS011;60395;52.020;113.548;2023-12-14T18:22:16;11.33;;;3.90;;
72404;SDS011;60395;52.020;113.548;2023-12-14T18:25:20;14.43;;;8.47;;
72404;SDS011;60395;52.020;113.548;2023-12-14T18:28:28;6.43;;;4.23;;
72404;SDS011;60395;52.020;113.548;2023-12-14T18:31:31;42.03;;;10.20;;
72404;SDS011;60395;52.020;113.548;2023-12-14T18:34:35;19.97;;;10.43;;
72404;SDS011;60395;52.020;113.548;2023-12-14T18:37:41;76.10;;;26.80;;
72404;SDS011;60395;52.020;113.548;2023-12-14T18:40:44;31.80;;;14.17;;
72404;SDS011;60395;52.020;113.548;2023-12-14T18:43:48;12.73;;;8.50;;
72404;SDS011;60395;52.020;113.548;2023-12-14T18:46:52;15.83;;;8.77;;
72404;SDS011;60395;52.020;113.548;2023-12-14T18:49:55;28.33;;;24.77;;
72404;SDS011;60395;52.020;113.548;2023-12-14T18:52:59;70.73;;;28.03;;
72404;SDS011;60395;52.020;113.548;2023-12-14T18:56:04;13.00;;;9.27;;
72404;SDS011;60395;52.020;113.548;2023-12-14T18:59:09;24.63;;;11.63;;
72404;SDS011;60395;52.020;113.548;2023-12-14T19:02:12;61.17;;;24.10;;
72404;SDS011;60395;52.020;113.548;2023-12-14T19:05:16;25.83;;;10.73;;
72404;SDS011;60395;52.020;113.548;2023-12-14T19:08:23;88.73;;;28.43;;
72404;SDS011;60395;52.020;113.548;2023-12-14T19:11:26;24.27;;;13.67;;
72404;SDS011;60395;52.020;113.548;2023-12-14T19:14:30;7.83;;;4.53;;
72404;SDS011;60395;52.020;113.548;2023-12-14T19:17:33;1.17;;;1.07;;
72404;SDS011;60395;52.020;113.548;2023-12-14T19:20:37;20.77;;;8.97;;
72404;SDS011;60395;52.020;113.548;2023-12-14T19:23:41;28.00;;;13.33;;
72404;SDS011;60395;52.020;113.548;2023-12-14T19:26:44;1.77;;;0.97;;
72404;SDS011;60395;52.020;113.548;2023-12-14T19:29:48;14.03;;;9.03;;
72404;SDS011;60395;52.020;113.548;2023-12-14T19:32:51;5.30;;;3.93;;
72404;SDS011;60395;52.020;113.548;2023-12-14T19:35:55;44.57;;;26.30;;
72404;SDS011;60395;52.020;113.548;2023-12-14T19:38:58;16.40;;;11.47;;
72404;SDS011;60395;52.020;113.548;2023-12-14T19:42:06;2.83;;;2.37;;
72404;SDS011;60395;52.020;113.548;2023-12-14T19:45:10;17.83;;;7.40;;
72404;SDS011;60395;52.020;113.548;2023-12-14T19:48:13;2.70;;;2.50;;
72404;SDS011;60395;52.020;113.548;2023-12-14T19:51:17;36.43;;;14.43;;